createdAt,value
2022-09-09T00:01:02.636Z,55.46
2022-09-09T00:03:40.031Z,55.27
2022-09-09T00:06:19.357Z,55.23
2022-09-09T00:08:57.898Z,55.23
2022-09-09T00:11:31.544Z,55.41
2022-09-09T00:14:05.223Z,55.24
2022-09-09T00:16:37.514Z,55.34
2022-09-09T00:19:09.447Z,55.58
2022-09-09T00:21:39.699Z,55.33
2022-09-09T00:24:14.909Z,55.54
2022-09-09T00:26:46.794Z,55.35
2022-09-09T00:29:27.766Z,55.43
2022-09-09T00:32:00.634Z,55.30
2022-09-09T00:34:30.881Z,55.54
2022-09-09T00:36:59.077Z,55.53
2022-09-09T00:39:33.153Z,55.45
2022-09-09T00:42:14.860Z,55.28
2022-09-09T00:44:53.918Z,55.37
2022-09-09T00:47:45.697Z,55.44
2022-09-09T00:50:30.646Z,55.44
2022-09-09T00:53:07.921Z,55.60
2022-09-09T00:55:43.722Z,55.65
2022-09-09T00:58:11.776Z,55.51
2022-09-09T01:00:45.607Z,55.48
2022-09-09T01:03:25.506Z,55.54
2022-09-09T01:06:04.211Z,55.71
2022-09-09T01:08:51.237Z,55.50
2022-09-09T01:11:22.625Z,55.87
2022-09-09T01:13:59.900Z,55.65
2022-09-09T01:16:31.185Z,55.77
2022-09-09T01:19:00.362Z,55.74
2022-09-09T01:21:42.271Z,55.90
2022-09-09T01:24:21.214Z,55.93
2022-09-09T01:26:51.901Z,55.60
2022-09-09T01:29:21.230Z,55.89
2022-09-09T01:31:56.157Z,55.76
2022-09-09T01:34:25.733Z,55.86
2022-09-09T01:36:59.570Z,55.78
2022-09-09T01:39:28.202Z,55.71
2022-09-09T01:41:58.542Z,55.52
2022-09-09T01:44:27.853Z,55.82
2022-09-09T01:46:55.519Z,55.71
2022-09-09T01:49:23.787Z,55.71
2022-09-09T01:51:54.027Z,55.80
2022-09-09T01:54:24.764Z,55.84
2022-09-09T01:57:04.817Z,55.84
2022-09-09T01:59:49.459Z,56.06
2022-09-09T02:02:20.892Z,55.97
2022-09-09T02:04:51.148Z,56.10
2022-09-09T02:07:32.821Z,55.96
2022-09-09T02:10:06.693Z,55.84
2022-09-09T02:12:35.751Z,56.19
2022-09-09T02:15:10.197Z,55.95
2022-09-09T02:17:40.747Z,56.14
2022-09-09T02:20:12.284Z,55.79
2022-09-09T02:22:42.335Z,56.06
2022-09-09T02:25:14.651Z,56.10
2022-09-09T02:27:47.516Z,55.97
2022-09-09T02:30:16.978Z,55.93
2022-09-09T02:32:47.728Z,55.98
2022-09-09T02:35:17.724Z,55.96
2022-09-09T02:37:48.022Z,55.99
2022-09-09T02:40:17.195Z,56.01
2022-09-09T02:42:48.875Z,56.08
2022-09-09T02:45:20.039Z,55.86
2022-09-09T02:47:56.022Z,56.00
2022-09-09T02:50:28.593Z,55.92
2022-09-09T02:53:08.886Z,55.92
2022-09-09T02:55:41.201Z,55.93
2022-09-09T02:58:13.484Z,56.10
2022-09-09T03:00:41.817Z,56.25
2022-09-09T03:03:10.722Z,55.76
2022-09-09T03:05:38.394Z,55.90
2022-09-09T03:08:07.382Z,55.92
2022-09-09T03:10:35.743Z,55.97
2022-09-09T03:13:03.428Z,56.06
2022-09-09T03:15:32.445Z,55.99
2022-09-09T03:18:00.655Z,55.88
2022-09-09T03:20:29.782Z,55.95
2022-09-09T03:22:58.426Z,55.96
2022-09-09T03:25:26.662Z,56.13
2022-09-09T03:27:55.290Z,56.06
2022-09-09T03:30:23.238Z,56.15
2022-09-09T03:32:52.351Z,56.32
2022-09-09T03:35:20.817Z,56.06
2022-09-09T03:37:48.897Z,56.08
2022-09-09T03:40:17.115Z,56.35
2022-09-09T03:42:44.796Z,56.17
2022-09-09T03:45:12.786Z,56.15
2022-09-09T03:47:40.468Z,56.32
2022-09-09T03:50:12.021Z,56.37
2022-09-09T03:52:41.640Z,56.53
2022-09-09T03:55:09.970Z,56.18
2022-09-09T03:57:38.150Z,56.24
2022-09-09T04:00:07.617Z,56.32
2022-09-09T04:02:35.334Z,56.41
2022-09-09T04:05:03.045Z,56.24
2022-09-09T04:07:32.019Z,56.15
2022-09-09T04:09:59.639Z,56.13
2022-09-09T04:12:27.394Z,56.16
2022-09-09T04:14:55.019Z,56.10
2022-09-09T04:17:22.669Z,56.21
2022-09-09T04:19:50.325Z,56.34
2022-09-09T04:22:18.013Z,56.11
2022-09-09T04:24:48.873Z,56.02
2022-09-09T04:27:16.830Z,56.14
2022-09-09T04:29:44.452Z,56.30
2022-09-09T04:32:12.548Z,56.19
2022-09-09T04:34:40.503Z,56.12
2022-09-09T04:37:08.272Z,56.16
2022-09-09T04:39:36.288Z,56.28
2022-09-09T04:42:05.718Z,56.09
2022-09-09T04:44:33.360Z,56.29
2022-09-09T04:47:00.983Z,56.15
2022-09-09T04:49:28.605Z,56.25
2022-09-09T04:51:56.546Z,56.09
2022-09-09T04:54:24.298Z,56.03
2022-09-09T04:56:52.548Z,56.30
2022-09-09T04:59:21.538Z,56.38
2022-09-09T05:01:49.312Z,56.36
2022-09-09T05:04:17.160Z,56.12
2022-09-09T05:06:45.080Z,56.44
2022-09-09T05:09:12.698Z,56.35
2022-09-09T05:11:40.363Z,56.24
2022-09-09T05:14:08.082Z,56.23
2022-09-09T05:16:37.183Z,56.17
2022-09-09T05:19:04.950Z,56.38
2022-09-09T05:21:32.710Z,56.78
2022-09-09T05:24:01.534Z,56.39
2022-09-09T05:26:30.356Z,56.46
2022-09-09T05:28:58.044Z,56.60
2022-09-09T05:31:28.737Z,56.53
2022-09-09T05:33:58.027Z,56.46
2022-09-09T05:36:25.690Z,56.57
2022-09-09T05:38:54.728Z,56.63
2022-09-09T05:41:24.006Z,56.65
2022-09-09T05:43:51.849Z,56.60
2022-09-09T05:46:21.405Z,56.64
2022-09-09T05:48:51.611Z,56.53
2022-09-09T05:51:22.800Z,56.37
2022-09-09T05:53:51.923Z,56.40
2022-09-09T05:56:21.086Z,56.65
2022-09-09T05:58:50.145Z,56.83
2022-09-09T06:01:19.157Z,56.68
2022-09-09T06:03:48.079Z,56.83
2022-09-09T06:06:18.146Z,57.40
2022-09-09T06:08:47.487Z,56.94
2022-09-09T06:11:17.104Z,57.06
2022-09-09T06:13:45.584Z,56.92
2022-09-09T06:16:14.725Z,57.12
2022-09-09T06:18:43.467Z,58.42
2022-09-09T06:21:15.487Z,58.35
2022-09-09T06:23:43.166Z,58.02
2022-09-09T06:26:14.404Z,58.18
2022-09-09T06:28:43.782Z,57.87
2022-09-09T06:31:15.148Z,57.98
2022-09-09T06:33:44.279Z,58.08
2022-09-09T06:36:14.063Z,58.29
2022-09-09T06:38:41.735Z,58.18
2022-09-09T06:41:11.003Z,58.31
2022-09-09T06:43:40.241Z,58.64
2022-09-09T06:46:10.693Z,58.07
2022-09-09T06:48:38.451Z,58.29
2022-09-09T06:51:07.962Z,58.75
2022-09-09T06:53:36.993Z,57.91
2022-09-09T06:56:18.313Z,57.63
2022-09-09T06:58:47.779Z,58.12
2022-09-09T07:01:17.671Z,57.61
2022-09-09T07:03:49.087Z,58.45
2022-09-09T07:06:18.944Z,57.84
2022-09-09T07:08:56.195Z,58.11
2022-09-09T07:11:26.735Z,58.36
2022-09-09T07:13:56.438Z,58.22
2022-09-09T07:16:25.631Z,57.73
2022-09-09T07:18:56.345Z,57.81
2022-09-09T07:21:25.512Z,58.34
2022-09-09T07:23:53.187Z,58.70
2022-09-09T07:26:24.345Z,58.40
2022-09-09T07:28:52.046Z,58.79
2022-09-09T07:31:23.257Z,58.40
2022-09-09T07:33:50.995Z,58.96
2022-09-09T07:36:22.671Z,58.08
2022-09-09T07:38:52.724Z,57.96
2022-09-09T07:41:23.022Z,57.91
2022-09-09T07:43:51.826Z,58.06
2022-09-09T07:46:22.465Z,58.34
2022-09-09T07:48:52.889Z,57.32
2022-09-09T07:51:23.327Z,57.39
2022-09-09T07:53:54.627Z,57.05
2022-09-09T07:56:24.156Z,57.69
2022-09-09T07:58:53.256Z,58.08
2022-09-09T08:01:25.797Z,56.71
2022-09-09T08:04:00.147Z,55.74
2022-09-09T08:06:28.725Z,56.99
2022-09-09T08:08:57.009Z,55.60
2022-09-09T08:11:26.947Z,57.02
2022-09-09T08:14:00.235Z,56.91
2022-09-09T08:16:33.574Z,57.41
2022-09-09T08:19:01.586Z,57.61
2022-09-09T08:21:31.145Z,57.78
2022-09-09T08:24:00.418Z,58.28
2022-09-09T08:26:30.200Z,58.04
2022-09-09T08:28:59.410Z,58.29
2022-09-09T08:31:29.961Z,58.41
2022-09-09T08:34:00.531Z,58.28
2022-09-09T08:36:30.810Z,58.70
2022-09-09T08:38:59.776Z,58.03
2022-09-09T08:41:49.992Z,58.24
2022-09-09T08:44:31.958Z,58.16
2022-09-09T08:47:07.718Z,58.39
2022-09-09T08:49:52.951Z,58.43
2022-09-09T08:52:24.850Z,58.39
2022-09-09T08:54:53.080Z,58.38
2022-09-09T08:57:27.645Z,58.45
2022-09-09T08:59:58.593Z,58.42
2022-09-09T09:02:30.781Z,58.33
2022-09-09T09:05:13.554Z,58.36
2022-09-09T09:07:58.079Z,58.79
2022-09-09T09:10:42.591Z,58.69
2022-09-09T09:13:17.020Z,58.50
2022-09-09T09:15:50.181Z,58.35
2022-09-09T09:18:19.315Z,58.64
2022-09-09T09:20:56.076Z,58.68
2022-09-09T09:23:27.209Z,58.48
2022-09-09T09:26:01.558Z,58.66
2022-09-09T09:28:33.690Z,58.82
2022-09-09T09:31:06.073Z,58.59
2022-09-09T09:33:48.549Z,58.75
2022-09-09T09:36:18.326Z,58.41
2022-09-09T09:41:46.573Z,58.52
2022-09-09T09:44:25.825Z,58.49
2022-09-09T09:46:54.052Z,58.41
2022-09-09T09:49:21.798Z,58.23
2022-09-09T09:51:51.145Z,58.71
2022-09-09T09:54:28.581Z,58.59
2022-09-09T09:56:56.360Z,58.81
2022-09-09T09:59:41.858Z,58.52
2022-09-09T10:02:21.351Z,58.64
2022-09-09T10:04:49.626Z,58.69
2022-09-09T10:07:23.296Z,58.68
2022-09-09T10:09:55.834Z,58.64
2022-09-09T10:12:38.390Z,58.58
2022-09-09T10:15:23.245Z,58.78
2022-09-09T10:18:02.838Z,58.74
2022-09-09T10:20:40.993Z,58.96
2022-09-09T10:23:23.518Z,59.16
2022-09-09T10:26:05.323Z,59.25
2022-09-09T10:28:56.476Z,59.49
2022-09-09T10:31:43.092Z,59.40
2022-09-09T10:34:29.784Z,59.42
2022-09-09T10:37:12.892Z,59.66
2022-09-09T10:39:51.675Z,59.55
2022-09-09T10:42:33.783Z,59.44
2022-09-09T10:45:22.807Z,59.80
2022-09-09T10:48:25.254Z,59.70
2022-09-09T10:51:04.708Z,59.82
2022-09-09T10:53:39.838Z,59.75
2022-09-09T10:56:13.301Z,59.85
2022-09-09T10:58:48.893Z,61.10
2022-09-09T11:01:33.725Z,60.10
2022-09-09T11:04:08.868Z,60.20
2022-09-09T11:06:45.032Z,60.38
2022-09-09T11:09:21.466Z,61.03
2022-09-09T11:11:53.243Z,60.23
2022-09-09T11:14:28.602Z,60.74
2022-09-09T11:17:01.513Z,60.53
2022-09-09T11:19:36.187Z,60.87
2022-09-09T11:22:08.275Z,60.67
2022-09-09T11:24:41.669Z,60.82
2022-09-09T11:27:15.777Z,60.71
2022-09-09T11:30:17.464Z,61.28
2022-09-09T11:33:44.449Z,60.86
2022-09-09T11:36:32.959Z,61.03
2022-09-09T11:39:10.108Z,61.03
2022-09-09T11:41:39.448Z,61.05
2022-09-09T11:44:15.734Z,61.30
2022-09-09T11:46:43.599Z,61.55
2022-09-09T11:49:29.006Z,61.23
2022-09-09T11:51:56.818Z,61.06
2022-09-09T11:54:32.999Z,60.99
2022-09-09T11:57:01.363Z,61.12
2022-09-09T11:59:32.583Z,61.05
2022-09-09T12:02:03.035Z,60.96
2022-09-09T12:04:34.971Z,61.03
2022-09-09T12:07:05.138Z,61.26
2022-09-09T12:09:44.101Z,61.06
2022-09-09T12:12:43.783Z,61.31
2022-09-09T12:15:28.990Z,60.99
2022-09-09T12:18:02.966Z,61.35
2022-09-09T12:20:36.950Z,61.12
2022-09-09T12:23:20.058Z,61.15
2022-09-09T12:25:59.478Z,61.12
2022-09-09T12:28:34.705Z,61.74
2022-09-09T12:31:11.455Z,61.52
2022-09-09T12:33:44.097Z,61.67
2022-09-09T12:36:16.378Z,61.39
2022-09-09T12:38:45.299Z,61.53
2022-09-09T12:41:21.894Z,61.39
2022-09-09T12:43:50.920Z,61.30
2022-09-09T12:46:32.244Z,61.29
2022-09-09T12:49:00.017Z,61.00
2022-09-09T12:51:30.993Z,61.28
2022-09-09T12:53:59.937Z,61.08
2022-09-09T12:56:31.143Z,60.95
2022-09-09T12:59:00.329Z,61.20
2022-09-09T13:01:31.446Z,61.12
2022-09-09T13:03:59.558Z,61.09
2022-09-09T13:06:29.589Z,60.90
2022-09-09T13:08:59.771Z,60.98
2022-09-09T13:11:32.321Z,60.97
2022-09-09T13:14:01.271Z,60.79
2022-09-09T13:16:36.592Z,60.91
2022-09-09T13:19:11.092Z,60.82
2022-09-09T13:21:40.491Z,60.79
2022-09-09T13:24:24.491Z,60.75
2022-09-09T13:26:58.106Z,60.67
2022-09-09T13:29:25.874Z,60.54
2022-09-09T13:31:56.652Z,60.33
2022-09-09T13:34:32.497Z,60.18
2022-09-09T13:37:04.426Z,60.54
2022-09-09T13:39:32.206Z,60.65
2022-09-09T13:42:00.427Z,60.72
2022-09-09T13:44:30.706Z,60.89
2022-09-09T13:47:10.722Z,60.85
2022-09-09T13:49:38.718Z,61.23
2022-09-09T13:52:10.801Z,61.39
2022-09-09T13:54:38.446Z,61.52
2022-09-09T13:57:06.439Z,61.39
2022-09-09T14:02:24.211Z,61.20
2022-09-09T14:04:55.994Z,60.92
2022-09-09T14:07:24.058Z,60.98
2022-09-09T14:09:52.750Z,61.20
2022-09-09T14:12:21.131Z,61.21
2022-09-09T14:14:48.822Z,61.31
2022-09-09T14:17:16.465Z,60.96
2022-09-09T14:19:46.029Z,60.91
2022-09-09T14:22:13.670Z,61.00
2022-09-09T14:24:41.858Z,61.46
2022-09-09T14:27:09.699Z,61.90
2022-09-09T14:29:37.391Z,61.82
2022-09-09T14:32:07.424Z,61.90
2022-09-09T14:34:38.437Z,61.82
2022-09-09T14:37:07.418Z,61.76
2022-09-09T14:39:35.205Z,61.61
2022-09-09T14:42:03.297Z,61.77
2022-09-09T14:44:31.151Z,61.77
2022-09-09T14:46:59.564Z,61.74
2022-09-09T14:49:27.216Z,61.61
2022-09-09T14:51:54.844Z,61.51
2022-09-09T14:54:23.978Z,61.51
2022-09-09T14:56:51.606Z,61.35
2022-09-09T14:59:19.307Z,61.53
2022-09-09T15:01:47.085Z,61.39
2022-09-09T15:04:15.975Z,61.24
2022-09-09T15:06:45.486Z,61.26
2022-09-09T15:09:13.209Z,61.19
2022-09-09T15:11:42.278Z,61.19
2022-09-09T15:14:12.231Z,61.18
2022-09-09T15:16:41.146Z,61.23
2022-09-09T15:19:09.855Z,61.22
2022-09-09T15:21:39.280Z,60.95
2022-09-09T15:24:09.237Z,60.97
2022-09-09T15:26:39.612Z,60.89
2022-09-09T15:29:09.513Z,61.04
2022-09-09T15:31:38.085Z,60.96
2022-09-09T15:34:07.675Z,60.90
2022-09-09T15:36:37.454Z,60.88
2022-09-09T15:39:07.019Z,60.78
2022-09-09T15:41:35.786Z,60.72
2022-09-09T15:44:04.146Z,60.81
2022-09-09T15:46:37.229Z,60.63
2022-09-09T15:49:07.116Z,60.69
2022-09-09T15:51:42.866Z,60.84
2022-09-09T15:54:13.070Z,60.88
2022-09-09T15:56:41.084Z,60.86
2022-09-09T15:59:08.729Z,60.80
2022-09-09T16:01:38.814Z,61.02
2022-09-09T16:04:07.378Z,60.86
2022-09-09T16:06:35.577Z,60.81
2022-09-09T16:09:06.189Z,61.05
2022-09-09T16:11:36.601Z,60.93
2022-09-09T16:14:05.298Z,60.69
2022-09-09T16:16:33.387Z,60.68
2022-09-09T16:19:06.297Z,60.74
2022-09-09T16:21:36.290Z,60.89
2022-09-09T16:24:05.730Z,60.76
2022-09-09T16:26:36.034Z,60.47
2022-09-09T16:29:04.485Z,60.59
2022-09-09T16:31:33.045Z,60.52
2022-09-09T16:34:04.167Z,60.73
2022-09-09T16:36:36.062Z,60.54
2022-09-09T16:39:06.449Z,60.47
2022-09-09T16:41:35.249Z,60.60
2022-09-09T16:44:04.910Z,60.48
2022-09-09T16:46:35.905Z,61.16
2022-09-09T16:49:07.230Z,61.28
2022-09-09T16:51:36.758Z,61.16
2022-09-09T16:54:07.782Z,60.83
2022-09-09T16:56:38.916Z,61.21
2022-09-09T16:59:08.720Z,60.92
2022-09-09T17:01:38.854Z,61.02
2022-09-09T17:04:10.030Z,61.10
2022-09-09T17:06:39.093Z,61.01
2022-09-09T17:09:09.175Z,60.88
2022-09-09T17:11:37.595Z,61.24
2022-09-09T17:14:06.187Z,61.21
2022-09-09T17:16:36.088Z,61.17
2022-09-09T17:19:05.726Z,61.18
2022-09-09T17:21:35.103Z,61.14
2022-09-09T17:24:03.173Z,61.39
2022-09-09T17:26:33.982Z,61.27
2022-09-09T17:29:02.547Z,61.23
2022-09-09T17:31:31.052Z,61.30
2022-09-09T17:33:59.943Z,61.48
2022-09-09T17:36:30.348Z,61.29
2022-09-09T17:39:00.693Z,61.17
2022-09-09T17:41:31.087Z,61.07
2022-09-09T17:43:59.870Z,61.26
2022-09-09T17:46:30.065Z,61.26
2022-09-09T17:48:59.820Z,61.18
2022-09-09T17:51:30.709Z,61.20
2022-09-09T17:54:02.228Z,61.29
2022-09-09T17:56:32.270Z,61.19
2022-09-09T17:59:01.569Z,60.95
2022-09-09T18:01:32.094Z,61.06
2022-09-09T18:04:02.910Z,61.19
2022-09-09T18:06:33.970Z,60.96
2022-09-09T18:09:05.336Z,61.16
2022-09-09T18:11:35.349Z,61.03
2022-09-09T18:14:04.519Z,61.13
2022-09-09T18:16:36.039Z,60.92
2022-09-09T18:19:05.063Z,61.21
2022-09-09T18:21:34.790Z,61.15
2022-09-09T18:24:06.834Z,61.08
2022-09-09T18:26:35.503Z,61.06
2022-09-09T18:29:08.317Z,61.21
2022-09-09T18:31:37.813Z,61.39
2022-09-09T18:34:07.055Z,61.47
2022-09-09T18:36:37.067Z,61.45
2022-09-09T18:39:08.793Z,61.11
2022-09-09T18:41:38.254Z,61.26
2022-09-09T18:44:08.230Z,61.37
2022-09-09T18:46:37.928Z,61.22
2022-09-09T18:49:06.117Z,60.89
2022-09-09T18:51:35.332Z,60.89
2022-09-09T18:54:07.886Z,61.05
2022-09-09T18:56:35.783Z,61.01
2022-09-09T18:59:06.370Z,61.27
2022-09-09T19:01:36.109Z,60.97
2022-09-09T19:04:06.050Z,61.34
2022-09-09T19:06:38.718Z,61.00
2022-09-09T19:09:10.635Z,61.17
2022-09-09T19:11:39.123Z,60.92
2022-09-09T19:14:10.521Z,60.92
2022-09-09T19:16:39.226Z,61.30
2022-09-09T19:19:09.917Z,60.84
2022-09-09T19:21:40.144Z,60.84
2022-09-09T19:24:12.718Z,61.23
2022-09-09T19:26:43.290Z,60.78
2022-09-09T19:29:15.153Z,60.80
2022-09-09T19:32:01.856Z,60.63
2022-09-09T19:34:31.653Z,61.18
2022-09-09T19:37:00.488Z,61.05
2022-09-09T19:39:29.554Z,61.09
2022-09-09T19:41:57.238Z,61.17
2022-09-09T19:44:24.904Z,61.25
2022-09-09T19:46:52.668Z,61.10
2022-09-09T19:49:20.308Z,61.28
2022-09-09T19:51:47.979Z,61.25
2022-09-09T19:54:15.810Z,61.43
2022-09-09T19:56:45.166Z,61.38
2022-09-09T19:59:15.746Z,61.17
2022-09-09T20:01:45.670Z,61.32
2022-09-09T20:04:14.486Z,61.17
2022-09-09T20:06:44.848Z,61.25
2022-09-09T20:09:15.604Z,61.14
2022-09-09T20:11:46.194Z,61.08
2022-09-09T20:14:14.450Z,61.15
2022-09-09T20:16:42.490Z,61.07
2022-09-09T20:19:17.248Z,61.06
2022-09-09T20:21:47.993Z,61.10
2022-09-09T20:24:18.020Z,61.20
2022-09-09T20:26:48.049Z,61.32
2022-09-09T20:29:18.949Z,61.13
2022-09-09T20:31:47.064Z,61.28
2022-09-09T20:34:16.822Z,61.12
2022-09-09T20:36:44.821Z,61.22
2022-09-09T20:39:14.932Z,61.48
2022-09-09T20:41:44.267Z,61.19
2022-09-09T20:44:16.395Z,61.15
2022-09-09T20:46:48.054Z,61.25
2022-09-09T20:49:17.423Z,61.07
2022-09-09T20:51:45.780Z,61.22
2022-09-09T20:54:15.837Z,61.54
2022-09-09T20:56:45.366Z,61.17
2022-09-09T20:59:16.734Z,61.29
2022-09-09T21:01:46.994Z,61.20
2022-09-09T21:04:16.416Z,61.19
2022-09-09T21:06:44.410Z,61.29
2022-09-09T21:09:12.266Z,61.26
2022-09-09T21:11:39.895Z,61.17
2022-09-09T21:14:07.641Z,61.07
2022-09-09T21:16:36.675Z,61.35
2022-09-09T21:19:04.463Z,61.29
2022-09-09T21:21:32.229Z,61.20
2022-09-09T21:24:00.618Z,61.56
2022-09-09T21:26:28.597Z,61.46
2022-09-09T21:28:56.466Z,61.11
2022-09-09T21:31:27.757Z,61.67
2022-09-09T21:33:57.664Z,61.52
2022-09-09T21:36:28.204Z,61.18
2022-09-09T21:38:56.734Z,61.36
2022-09-09T21:41:24.427Z,61.31
2022-09-09T21:43:54.050Z,61.35
2022-09-09T21:46:23.523Z,61.33
2022-09-09T21:48:51.641Z,61.13
2022-09-09T21:51:20.686Z,60.83
2022-09-09T21:53:48.305Z,61.06
2022-09-09T21:56:18.124Z,61.06
2022-09-09T21:58:47.211Z,60.94
2022-09-09T22:01:16.607Z,61.08
2022-09-09T22:03:45.215Z,60.94
2022-09-09T22:06:14.978Z,60.96
2022-09-09T22:08:44.879Z,61.02
2022-09-09T22:11:15.014Z,60.86
2022-09-09T22:13:44.160Z,61.18
2022-09-09T22:16:13.722Z,61.16
2022-09-09T22:18:42.034Z,61.16
2022-09-09T22:21:12.350Z,61.10
2022-09-09T22:23:40.045Z,61.15
2022-09-09T22:26:09.235Z,60.96
2022-09-09T22:28:38.450Z,61.18
2022-09-09T22:31:06.954Z,61.02
2022-09-09T22:33:34.848Z,61.11
2022-09-09T22:36:03.018Z,60.95
2022-09-09T22:38:31.542Z,61.01
2022-09-09T22:40:59.245Z,61.16
2022-09-09T22:43:28.387Z,61.02
2022-09-09T22:45:56.091Z,61.09
2022-09-09T22:48:24.591Z,60.99
2022-09-09T22:50:52.930Z,61.13
2022-09-09T22:53:20.558Z,60.86
2022-09-09T22:55:58.513Z,60.97
2022-09-09T22:58:29.088Z,60.97
2022-09-09T23:00:58.757Z,61.09
2022-09-09T23:03:26.535Z,61.02
2022-09-09T23:05:56.654Z,60.95
2022-09-09T23:08:25.943Z,60.91
2022-09-09T23:10:55.453Z,60.90
2022-09-09T23:13:24.207Z,60.82
2022-09-09T23:15:55.233Z,60.72
2022-09-09T23:18:24.116Z,60.61
2022-09-09T23:21:00.579Z,60.83
2022-09-09T23:23:28.874Z,60.75
2022-09-09T23:25:56.504Z,60.81
2022-09-09T23:28:24.123Z,60.90
2022-09-09T23:30:53.139Z,60.58
2022-09-09T23:33:20.838Z,60.72
2022-09-09T23:35:48.469Z,60.67
2022-09-09T23:38:16.102Z,60.91
2022-09-09T23:40:47.119Z,60.99
2022-09-09T23:43:14.775Z,60.99
2022-09-09T23:45:42.403Z,60.94
2022-09-09T23:48:11.356Z,60.71
2022-09-09T23:50:39.022Z,60.78
2022-09-09T23:53:07.198Z,60.89
2022-09-09T23:55:35.668Z,60.80
2022-09-09T23:58:03.462Z,60.81
